Time;durP1;ratioP1;P1;durP2;ratioP2;P2;SDS_P1;SDS_P2;PMS_P1;PMS_P2;Temp;Humidity;BMP_temperature;BMP_pressure;BME280_temperature;BME280_humidity;BME280_pressure;Samples;Min_cycle;Max_cycle;Signal;HPM_P1;HPM_P2
2023/05/18 00:00:18;;;;;;;10.13;4.65;;;;;;;4.47;72.75;102163.34;688036;28;947;-82
2023/05/18 00:00:38;;;;;;;9.13;4.40;;;;;;;4.50;72.79;102173.91;687895;28;1123;-82
2023/05/18 00:01:02;;;;;;;8.27;4.53;;;;;;;4.52;73.18;102186.94;688161;28;1160;-82
2023/05/18 00:01:22;;;;;;;7.50;4.40;;;;;;;4.43;73.13;102176.84;688830;28;975;-82
2023/05/18 00:01:43;;;;;;;7.43;4.18;;;;;;;4.43;73.20;102178.50;691375;28;1198;-81
2023/05/18 00:02:05;;;;;;;9.37;4.10;;;;;;;4.40;73.19;102176.56;693593;28;1029;-82
2023/05/18 00:02:26;;;;;;;8.15;4.05;;;;;;;4.42;73.53;102184.47;692512;28;1161;-83
2023/05/18 00:02:47;;;;;;;10.43;4.70;;;;;;;4.41;73.16;102182.66;694522;28;1106;-83
2023/05/18 00:03:07;;;;;;;9.68;4.60;;;;;;;4.44;73.32;102188.06;693519;28;1362;-83
2023/05/18 00:03:28;;;;;;;10.45;4.90;;;;;;;4.37;73.56;102177.25;693270;28;1298;-82
2023/05/18 00:03:52;;;;;;;10.75;4.90;;;;;;;4.37;73.67;102179.81;690805;28;1804;-82
2023/05/18 00:04:15;;;;;;;8.95;4.85;;;;;;;4.37;73.90;102182.41;690796;28;1116;-82
2023/05/18 00:04:37;;;;;;;7.65;4.63;;;;;;;4.42;73.52;102184.47;690674;28;1088;-82
2023/05/18 00:05:00;;;;;;;10.40;4.90;;;;;;;4.40;73.83;102186.91;688154;28;1229;-82
2023/05/18 00:05:21;;;;;;;13.55;5.30;;;;;;;4.38;73.87;102180.75;688057;28;1073;-82
2023/05/18 00:05:42;;;;;;;13.40;5.30;;;;;;;4.34;73.66;102177.03;687763;28;1071;-82
2023/05/18 00:06:06;;;;;;;9.85;4.80;;;;;;;4.37;73.77;102181.53;687991;28;1216;-82
2023/05/18 00:06:26;;;;;;;7.85;4.38;;;;;;;4.33;74.02;102180.38;685065;28;1431;-82
2023/05/18 00:06:47;;;;;;;9.00;4.35;;;;;;;4.37;73.94;102184.13;690682;28;1187;-83
2023/05/18 00:07:08;;;;;;;8.83;4.67;;;;;;;4.29;74.06;102168.00;690799;28;1040;-83
2023/05/18 00:07:32;;;;;;;9.48;4.80;;;;;;;4.35;74.19;102189.16;687859;28;1077;-82
2023/05/18 00:07:53;;;;;;;8.95;4.70;;;;;;;4.33;74.32;102180.38;688132;28;1301;-82
2023/05/18 00:08:14;;;;;;;8.43;4.50;;;;;;;4.29;74.30;102172.28;690832;28;1178;-82
2023/05/18 00:08:35;;;;;;;7.40;4.30;;;;;;;4.29;74.25;102173.16;693184;28;1039;-82
2023/05/18 00:08:56;;;;;;;8.15;4.60;;;;;;;4.31;74.55;102173.31;691003;28;897;-82
2023/05/18 00:09:17;;;;;;;8.45;4.60;;;;;;;4.29;74.12;102178.34;690670;28;1125;-82
2023/05/18 00:09:37;;;;;;;8.95;4.80;;;;;;;4.29;73.78;102178.34;692903;28;1074;-82
2023/05/18 00:09:59;;;;;;;8.33;4.80;;;;;;;4.28;74.29;102171.38;693580;28;1076;-82
2023/05/18 00:10:20;;;;;;;7.82;5.15;;;;;;;4.33;74.30;102185.56;690702;28;1107;-83
2023/05/18 00:10:41;;;;;;;7.50;4.77;;;;;;;4.36;74.19;102185.78;682649;29;1296;-83
2023/05/18 00:11:03;;;;;;;8.70;4.65;;;;;;;4.36;74.13;102182.31;685493;28;1137;-82
2023/05/18 00:11:23;;;;;;;12.27;4.75;;;;;;;4.43;74.12;102191.44;685433;28;1141;-82
2023/05/18 00:11:44;;;;;;;12.00;4.72;;;;;;;4.40;74.33;102186.03;685295;28;1242;-82
2023/05/18 00:12:05;;;;;;;10.02;4.60;;;;;;;4.37;74.16;102179.81;688285;28;1362;-83
2023/05/18 00:12:26;;;;;;;7.90;4.40;;;;;;;4.41;74.27;102188.72;688371;28;1193;-81
2023/05/18 00:12:47;;;;;;;9.02;4.60;;;;;;;4.37;73.96;102177.25;688083;28;1172;-82
2023/05/18 00:13:07;;;;;;;10.70;4.97;;;;;;;4.38;74.04;102173.88;690736;28;1163;-81
2023/05/18 00:13:29;;;;;;;9.85;5.00;;;;;;;4.43;74.29;102176.84;690631;28;1184;-82
2023/05/18 00:13:49;;;;;;;10.10;5.10;;;;;;;4.45;73.81;102174.34;691092;28;864;-82
2023/05/18 00:14:10;;;;;;;9.40;4.77;;;;;;;4.41;73.95;102170.63;693531;28;1206;-82
2023/05/18 00:15:03;;;;;;;9.90;4.80;;;;;;;4.52;74.03;102193.03;690629;28;1208;-82
2023/05/18 00:15:24;;;;;;;7.03;4.70;;;;;;;4.38;73.70;102167.81;688092;28;1918;-83
2023/05/18 00:15:45;;;;;;;9.20;4.78;;;;;;;4.47;73.71;102170.22;687991;28;1123;-83
2023/05/18 00:16:05;;;;;;;11.30;5.10;;;;;;;4.42;74.03;102169.81;690886;28;1358;-82
2023/05/18 00:16:26;;;;;;;10.88;5.22;;;;;;;4.43;73.81;102168.16;690785;28;1147;-82
2023/05/18 00:16:47;;;;;;;9.27;4.82;;;;;;;4.51;73.83;102174.81;690773;28;1075;-82
2023/05/18 00:17:08;;;;;;;8.82;4.75;;;;;;;4.51;73.53;102185.16;690920;28;1235;-82
2023/05/18 00:17:28;;;;;;;9.45;4.88;;;;;;;4.46;73.35;102174.47;690788;28;1093;-82
2023/05/18 00:17:52;;;;;;;8.57;5.00;;;;;;;4.46;73.67;102169.28;690843;28;1265;-82
2023/05/18 00:18:12;;;;;;;7.90;4.78;;;;;;;4.49;73.76;102181.56;688201;28;1084;-82
2023/05/18 00:18:33;;;;;;;8.20;4.53;;;;;;;4.50;73.66;102183.34;693542;28;1244;-82
2023/05/18 00:18:55;;;;;;;8.23;4.57;;;;;;;4.44;73.85;102172.53;691125;28;748;-82
2023/05/18 00:19:16;;;;;;;9.80;4.70;;;;;;;4.58;73.77;102186.50;693540;28;1143;-82
2023/05/18 00:19:36;;;;;;;10.32;5.18;;;;;;;4.50;73.37;102168.72;688453;28;1053;-82
2023/05/18 00:19:57;;;;;;;9.50;5.20;;;;;;;4.56;73.08;102173.47;688846;28;936;-82
2023/05/18 00:20:20;;;;;;;9.20;4.90;;;;;;;4.54;73.31;102166.38;691728;28;1230;-82
2023/05/18 00:20:42;;;;;;;7.85;4.40;;;;;;;4.51;73.00;102169.63;694199;28;1086;-81
2023/05/18 00:21:05;;;;;;;9.43;4.60;;;;;;;4.55;73.32;102182.03;691849;28;1262;-82
2023/05/18 00:21:29;;;;;;;9.60;4.80;;;;;;;4.67;73.06;102192.41;693598;28;1356;-82
2023/05/18 00:21:51;;;;;;;10.15;5.05;;;;;;;4.55;72.96;102174.28;696460;28;957;-81
2023/05/18 00:22:16;;;;;;;8.57;4.85;;;;;;;4.60;73.04;102183.25;695154;28;1141;-81
2023/05/18 00:22:41;;;;;;;8.40;4.60;;;;;;;4.51;73.30;102169.63;691528;28;1232;-82
2023/05/18 00:23:01;;;;;;;9.18;4.50;;;;;;;4.57;73.11;102176.94;692248;28;1031;-81
2023/05/18 00:23:23;;;;;;;10.13;4.50;;;;;;;4.51;73.08;102170.56;686633;28;991;-82
2023/05/18 00:23:48;;;;;;;8.73;4.68;;;;;;;4.51;73.20;102180.91;686603;28;1049;-82
2023/05/18 00:24:12;;;;;;;8.35;4.60;;;;;;;4.56;73.38;102180.31;686410;28;1113;-82
2023/05/18 00:24:32;;;;;;;8.73;4.70;;;;;;;4.52;73.06;102171.44;689212;28;1099;-82
2023/05/18 00:24:53;;;;;;;9.18;4.70;;;;;;;4.57;73.21;102180.44;689132;28;1088;-82
2023/05/18 00:25:13;;;;;;;8.75;4.65;;;;;;;4.53;73.20;102175.81;688909;28;1088;-82
2023/05/18 00:25:34;;;;;;;8.60;4.43;;;;;;;4.49;73.28;102181.56;689157;28;1039;-83
2023/05/18 00:25:59;;;;;;;9.20;4.40;;;;;;;4.52;73.50;102198.22;689700;28;1166;-82
2023/05/18 00:26:19;;;;;;;8.85;4.47;;;;;;;4.44;73.40;102182.88;691622;28;1932;-82
2023/05/18 00:26:46;;;;;;;9.82;4.80;;;;;;;4.47;73.65;102185.72;689047;28;997;-82
2023/05/18 00:27:07;;;;;;;10.54;4.74;;;;;;;4.39;73.60;102169.59;694241;28;1078;-81
2023/05/18 00:27:28;;;;;;;10.33;4.67;;;;;;;4.45;73.63;102185.59;694144;28;1042;-82
2023/05/18 00:27:50;;;;;;;9.43;4.63;;;;;;;4.47;73.55;102185.72;694463;28;1064;-82
2023/05/18 00:28:12;;;;;;;7.53;4.70;;;;;;;4.49;73.60;102182.44;691368;28;947;-82
2023/05/18 00:28:33;;;;;;;8.23;4.80;;;;;;;4.43;73.46;102176.84;688627;28;1008;-82
2023/05/18 00:28:53;;;;;;;7.80;4.63;;;;;;;4.45;73.79;102176.94;691598;28;787;-82
2023/05/18 00:29:14;;;;;;;9.45;5.00;;;;;;;4.47;73.76;102183.13;688813;28;1163;-81
2023/05/18 00:29:35;;;;;;;8.65;4.95;;;;;;;4.44;73.76;102183.78;689026;28;952;-82
2023/05/18 00:29:56;;;;;;;8.10;5.20;;;;;;;4.45;73.73;102187.25;694187;28;1187;-82
2023/05/18 00:30:16;;;;;;;9.15;5.07;;;;;;;4.49;73.63;102182.44;691294;28;1191;-82
2023/05/18 00:30:37;;;;;;;9.97;5.20;;;;;;;4.48;73.62;102174.59;688450;28;1029;-82
2023/05/18 00:30:59;;;;;;;12.45;5.40;;;;;;;4.54;73.68;102189.66;691503;28;806;-82
2023/05/18 00:31:20;;;;;;;10.70;5.32;;;;;;;4.47;73.54;102171.09;691170;28;1132;-82
2023/05/18 00:31:41;;;;;;;9.70;4.97;;;;;;;4.47;73.53;102177.97;688475;28;1176;-81
2023/05/18 00:32:01;;;;;;;8.40;4.60;;;;;;;4.49;73.55;102186.72;686120;28;971;-82
2023/05/18 00:32:22;;;;;;;8.20;4.78;;;;;;;4.47;73.73;102177.97;688603;28;1009;-82
2023/05/18 00:32:42;;;;;;;7.97;4.83;;;;;;;4.41;73.67;102172.31;691314;28;1147;-82
2023/05/18 00:33:03;;;;;;;8.07;4.90;;;;;;;4.46;73.92;102178.72;691470;28;1174;-82
2023/05/18 00:33:24;;;;;;;7.22;4.50;;;;;;;4.46;73.74;102182.22;691216;28;1220;-82
2023/05/18 00:33:44;;;;;;;7.53;4.40;;;;;;;4.42;73.63;102174.13;691065;28;1059;-82
2023/05/18 00:34:13;;;;;;;7.45;4.50;;;;;;;4.44;73.46;102178.63;688600;28;1375;-82
2023/05/18 00:34:33;;;;;;;7.57;4.82;;;;;;;4.41;73.57;102175.78;688550;28;1164;-82
2023/05/18 00:34:54;;;;;;;7.72;5.10;;;;;;;4.44;73.63;102183.78;688827;28;946;-82
2023/05/18 00:35:16;;;;;;;8.73;5.00;;;;;;;4.40;73.69;102170.53;691229;28;1910;-82
2023/05/18 00:35:37;;;;;;;8.52;4.88;;;;;;;4.44;73.74;102180.28;685936;28;1181;-82
2023/05/18 00:35:58;;;;;;;8.45;5.03;;;;;;;4.38;73.48;102168.69;694061;28;1247;-82
2023/05/18 00:36:18;;;;;;;9.25;5.00;;;;;;;4.43;73.65;102181.09;693935;28;1393;-82
2023/05/18 00:36:39;;;;;;;10.30;5.13;;;;;;;4.43;73.72;102181.09;693886;28;988;-82
2023/05/18 00:37:00;;;;;;;9.65;4.53;;;;;;;4.41;73.90;102175.78;691519;28;831;-82
2023/05/18 00:37:21;;;;;;;9.70;4.97;;;;;;;4.44;73.76;102182.88;691354;28;1194;-82
2023/05/18 00:37:41;;;;;;;9.95;5.25;;;;;;;4.42;73.86;102176.72;693903;28;1127;-82
2023/05/18 00:38:02;;;;;;;10.98;5.63;;;;;;;4.36;74.07;102171.97;696929;28;763;-82
2023/05/18 00:38:23;;;;;;;9.73;5.18;;;;;;;4.33;74.04;102167.47;696815;28;1097;-82
2023/05/18 00:38:43;;;;;;;9.50;4.80;;;;;;;4.34;74.00;102177.03;691194;28;1003;-82
2023/05/18 00:39:06;;;;;;;10.45;4.75;;;;;;;4.29;74.30;102169.69;691701;28;1156;-83
2023/05/18 00:39:26;;;;;;;11.60;5.00;;;;;;;4.34;74.09;102171.84;688384;28;1439;-82
2023/05/18 00:39:47;;;;;;;11.80;5.03;;;;;;;4.33;74.02;102180.38;688543;28;1184;-82
2023/05/18 00:40:09;;;;;;;10.23;5.00;;;;;;;4.32;74.25;102170.84;691225;28;1324;-82
2023/05/18 00:40:29;;;;;;;10.25;4.75;;;;;;;4.27;74.51;102164.41;691116;28;1103;-81
2023/05/18 00:40:50;;;;;;;9.98;4.57;;;;;;;4.34;74.18;102182.19;691342;28;807;-82
2023/05/18 00:41:11;;;;;;;10.07;4.57;;;;;;;4.32;74.18;102182.84;691322;28;1095;-82
2023/05/18 00:41:33;;;;;;;9.48;4.50;;;;;;;4.35;74.30;102186.56;693712;28;1079;-82
2023/05/18 00:41:54;;;;;;;7.85;4.40;;;;;;;4.41;74.45;102188.72;694220;28;819;-82
2023/05/18 00:42:15;;;;;;;8.95;4.60;;;;;;;4.27;74.18;102174.75;688464;28;1191;-82
2023/05/18 00:42:35;;;;;;;8.33;4.40;;;;;;;4.41;74.33;102198.16;691158;28;1084;-82
2023/05/18 00:42:56;;;;;;;8.82;4.43;;;;;;;4.25;74.23;102171.16;691418;28;817;-81
2023/05/18 00:43:17;;;;;;;6.07;4.32;;;;;;;4.24;74.29;102171.94;696776;28;1079;-82
2023/05/18 00:43:40;;;;;;;6.40;4.70;;;;;;;4.31;74.27;102189.72;691285;28;1183;-82
2023/05/18 00:44:00;;;;;;;7.97;4.90;;;;;;;4.22;74.33;102170.91;691448;28;893;-82
2023/05/18 00:44:22;;;;;;;8.75;4.90;;;;;;;4.27;74.73;102176.41;691190;28;1064;-82
2023/05/18 00:44:42;;;;;;;8.73;5.07;;;;;;;4.28;74.58;102181.72;693744;28;1190;-82
2023/05/18 00:45:12;;;;;;;9.43;5.13;;;;;;;4.25;74.98;102178.91;693969;28;1031;-82
2023/05/18 00:45:33;;;;;;;8.55;5.00;;;;;;;4.30;74.70;102185.31;688148;28;1362;-82
2023/05/18 00:45:53;;;;;;;8.85;5.30;;;;;;;4.22;74.98;102173.47;691316;28;1274;-82
2023/05/18 00:46:14;;;;;;;9.35;5.20;;;;;;;4.37;74.87;102197.91;688497;28;1087;-82
2023/05/18 00:46:35;;;;;;;10.87;5.30;;;;;;;4.24;74.79;102169.34;691105;28;988;-82
2023/05/18 00:46:55;;;;;;;8.95;4.80;;;;;;;4.27;75.12;102172.16;688645;28;847;-82
2023/05/18 00:47:17;;;;;;;8.15;4.82;;;;;;;4.28;74.68;102173.06;691118;28;1148;-82
2023/05/18 00:47:37;;;;;;;5.97;4.63;;;;;;;4.33;74.73;102180.38;688332;28;1363;-82
2023/05/18 00:47:58;;;;;;;6.83;4.60;;;;;;;4.30;74.99;102174.97;691300;28;1305;-82
2023/05/18 00:48:19;;;;;;;8.50;4.65;;;;;;;4.32;74.60;102181.19;696540;28;1252;-82
2023/05/18 00:48:40;;;;;;;10.30;4.68;;;;;;;4.30;74.56;102168.91;691080;28;1241;-82
2023/05/18 00:49:01;;;;;;;10.00;4.78;;;;;;;4.31;74.52;102181.97;688550;28;1116;-82
2023/05/18 00:49:22;;;;;;;9.50;4.90;;;;;;;4.32;74.68;102180.25;688550;28;1111;-82
2023/05/18 00:49:42;;;;;;;9.07;5.10;;;;;;;4.23;74.67;102173.59;688384;28;1111;-82
2023/05/18 00:50:03;;;;;;;11.65;5.40;;;;;;;4.31;74.28;102181.97;691270;28;1188;-82
2023/05/18 00:50:24;;;;;;;10.45;5.30;;;;;;;4.23;74.78;102170.16;690855;28;1335;-82
2023/05/18 00:50:45;;;;;;;10.20;5.30;;;;;;;4.26;74.43;102175.53;687958;28;1136;-82
2023/05/18 00:51:07;;;;;;;7.40;4.90;;;;;;;4.28;74.88;102181.72;685820;28;1394;-82
2023/05/18 00:51:30;;;;;;;7.93;5.00;;;;;;;4.29;74.78;102183.50;691023;28;1236;-82
2023/05/18 00:51:53;;;;;;;8.43;4.70;;;;;;;4.26;74.40;102180.72;696813;28;897;-82
2023/05/18 00:52:14;;;;;;;8.50;4.70;;;;;;;4.22;74.81;102171.81;691243;28;1037;-81
2023/05/18 00:52:36;;;;;;;9.27;4.57;;;;;;;4.21;74.44;102169.06;688243;28;1152;-82
2023/05/18 00:52:56;;;;;;;8.13;4.50;;;;;;;4.29;74.95;102188.69;688661;28;1097;-82
2023/05/18 00:53:17;;;;;;;9.40;4.50;;;;;;;4.21;74.75;102169.06;688606;28;1177;-82
2023/05/18 00:53:38;;;;;;;7.63;4.40;;;;;;;4.21;74.91;102174.22;688376;28;1084;-82
2023/05/18 00:54:01;;;;;;;6.88;4.43;;;;;;;4.27;74.67;102184.16;688675;28;733;-81
2023/05/18 00:54:22;;;;;;;7.43;4.32;;;;;;;4.16;74.43;102167.84;693725;28;1099;-82
2023/05/18 00:54:43;;;;;;;8.45;4.55;;;;;;;4.20;74.96;102172.44;696698;28;1083;-82
2023/05/18 00:55:05;;;;;;;6.35;4.40;;;;;;;4.28;74.79;102189.47;693946;28;1438;-82
2023/05/18 00:55:27;;;;;;;7.96;4.40;;;;;;;4.26;74.60;102185.88;691040;28;1906;-82
2023/05/18 00:55:47;;;;;;;8.82;4.35;;;;;;;4.16;74.92;102170.41;688447;28;1066;-82
2023/05/18 00:56:10;;;;;;;10.55;4.72;;;;;;;4.15;74.80;102173.75;688463;28;1082;-82
2023/05/18 00:56:34;;;;;;;9.50;4.90;;;;;;;4.17;74.68;102177.38;688238;28;1363;-82
2023/05/18 00:56:55;;;;;;;7.32;4.68;;;;;;;4.18;74.88;102179.19;693890;28;1383;-82
2023/05/18 00:57:18;;;;;;;6.85;4.50;;;;;;;4.23;75.17;102189.13;691274;28;1330;-82
2023/05/18 00:57:43;;;;;;;8.45;4.70;;;;;;;4.27;74.91;102200.59;690997;28;996;-82
2023/05/18 00:58:04;;;;;;;9.60;5.18;;;;;;;4.20;75.40;102194.03;691204;28;1116;-82
2023/05/18 00:58:25;;;;;;;10.30;5.30;;;;;;;4.09;75.30;102189.69;691010;28;1136;-82
2023/05/18 00:58:46;;;;;;;9.40;5.20;;;;;;;4.05;75.06;102180.81;691144;28;1020;-82
2023/05/18 00:59:09;;;;;;;7.07;4.87;;;;;;;4.15;75.31;102197.00;693975;28;1198;-82
2023/05/18 00:59:31;;;;;;;8.48;5.00;;;;;;;4.06;75.33;102180.03;690981;28;1175;-82
2023/05/18 00:59:52;;;;;;;8.07;5.00;;;;;;;4.05;75.21;102173.06;691332;28;1498;-82
2023/05/18 01:00:14;;;;;;;7.28;4.95;;;;;;;4.08;75.49;102187.91;696631;28;1149;-82
2023/05/18 01:00:36;;;;;;;9.60;4.80;;;;;;;4.03;75.33;102172.03;693677;28;1149;-82
2023/05/18 01:00:57;;;;;;;10.02;4.63;;;;;;;4.05;75.27;102178.22;693997;28;1105;-82
2023/05/18 01:01:18;;;;;;;12.37;4.70;;;;;;;4.01;75.73;102168.44;685748;28;1201;-82
2023/05/18 01:01:42;;;;;;;9.22;4.44;;;;;;;4.04;75.65;102179.00;688383;28;1116;-82
2023/05/18 01:02:03;;;;;;;9.57;4.57;;;;;;;4.04;75.67;102185.88;691256;28;1055;-82
2023/05/18 01:02:28;;;;;;;9.43;4.95;;;;;;;4.03;75.77;102178.88;691130;28;1078;-82
2023/05/18 01:02:49;;;;;;;9.43;4.95;;;;;;;4.02;75.51;102180.59;693976;28;792;-82
2023/05/18 01:03:14;;;;;;;11.52;5.15;;;;;;;4.01;75.87;102177.88;693928;28;1119;-82
2023/05/18 01:03:37;;;;;;;12.10;5.00;;;;;;;3.97;75.59;102174.16;688143;28;1109;-82
2023/05/18 01:04:01;;;;;;;10.68;4.72;;;;;;;3.99;75.69;102177.78;693950;28;857;-82
2023/05/18 01:04:23;;;;;;;7.03;4.50;;;;;;;3.99;75.41;102182.94;696572;28;1050;-82
2023/05/18 01:04:44;;;;;;;7.35;4.80;;;;;;;3.95;75.73;102174.06;691043;28;1144;-82
2023/05/18 01:05:05;;;;;;;9.63;4.87;;;;;;;3.99;75.98;102182.03;685904;28;1080;-82
2023/05/18 01:05:25;;;;;;;8.40;4.70;;;;;;;3.99;75.92;102188.09;685731;28;1050;-82
2023/05/18 01:05:54;;;;;;;9.55;4.90;;;;;;;3.97;75.66;102179.31;688479;28;1204;-82
2023/05/18 01:06:17;;;;;;;9.25;4.97;;;;;;;3.92;75.84;102172.91;691031;28;1091;-81
2023/05/18 01:06:39;;;;;;;9.00;4.70;;;;;;;3.93;75.81;102172.13;693750;28;1080;-83
2023/05/18 01:07:05;;;;;;;6.80;4.43;;;;;;;4.04;76.01;102191.94;693884;28;2023;-82
2023/05/18 01:07:25;;;;;;;7.25;4.78;;;;;;;3.94;76.21;102179.97;691006;28;937;-82
2023/05/18 01:07:46;;;;;;;9.43;5.18;;;;;;;3.90;75.80;102169.28;688558;28;1211;-83
2023/05/18 01:08:07;;;;;;;11.20;5.35;;;;;;;4.00;75.94;102184.75;691316;28;1024;-82
2023/05/18 01:08:28;;;;;;;10.70;5.20;;;;;;;3.96;75.85;102182.69;688451;28;1061;-82
2023/05/18 01:08:48;;;;;;;9.70;5.07;;;;;;;3.89;76.06;102170.97;688448;28;1173;-82
2023/05/18 01:09:10;;;;;;;8.77;4.80;;;;;;;3.92;75.74;102181.53;691299;28;1095;-82
2023/05/18 01:09:32;;;;;;;9.60;4.78;;;;;;;3.93;76.21;102178.16;690946;28;1290;-82
2023/05/18 01:09:53;;;;;;;10.27;5.15;;;;;;;3.93;76.30;102183.34;688617;28;1107;-82
2023/05/18 01:10:16;;;;;;;10.70;5.40;;;;;;;3.84;76.24;102167.13;688532;28;1226;-82
2023/05/18 01:10:40;;;;;;;8.73;5.07;;;;;;;3.88;76.28;102173.44;688320;28;1076;-82
2023/05/18 01:11:12;;;;;;;8.40;4.80;;;;;;;4.00;76.16;102192.47;688696;28;886;-82
2023/05/18 01:11:39;;;;;;;8.32;5.28;;;;;;;3.99;76.03;102187.19;688197;28;1014;-82
2023/05/18 01:12:34;;;;;;;8.82;5.30;;;;;;;3.89;76.64;102177.81;688530;28;1286;-82
2023/05/18 01:13:01;;;;;;;10.50;4.97;;;;;;;3.79;76.31;102161.59;688306;28;1220;-82
2023/05/18 01:13:37;;;;;;;11.73;5.07;;;;;;;3.87;76.53;102171.63;690776;28;1182;-82
2023/05/18 01:14:08;;;;;;;12.80;5.40;;;;;;;3.85;76.88;102174.09;688111;28;930;-82
2023/05/18 01:14:54;;;;;;;10.38;5.28;;;;;;;3.94;76.85;102184.25;688248;28;1196;-82
2023/05/18 01:15:19;;;;;;;10.18;5.60;;;;;;;3.82;76.77;102172.16;682567;28;2019;-82
2023/05/18 01:15:40;;;;;;;9.05;5.63;;;;;;;3.80;76.90;102162.53;685482;28;1239;-82
2023/05/18 01:16:08;;;;;;;9.55;5.43;;;;;;;3.83;76.50;102171.41;691168;28;1558;-82
2023/05/18 01:16:39;;;;;;;8.57;4.80;;;;;;;3.83;76.71;102181.75;690896;28;1163;-82
2023/05/18 01:17:26;;;;;;;11.60;5.40;;;;;;;3.93;76.61;102191.09;691248;28;1081;-82
2023/05/18 01:18:13;;;;;;;10.02;5.35;;;;;;;3.93;76.84;102187.63;693345;28;1186;-82
2023/05/18 01:18:46;;;;;;;10.70;5.00;;;;;;;3.83;76.90;102175.66;690932;28;997;-82
2023/05/18 01:19:51;;;;;;;7.05;5.10;;;;;;;3.88;77.16;102186.34;696699;28;1124;-82
2023/05/18 01:20:21;;;;;;;14.02;5.80;;;;;;;3.74;76.69;102170.66;693848;28;1295;-82
2023/05/18 01:20:46;;;;;;;10.23;5.40;;;;;;;3.83;76.62;102192.06;696389;28;1070;-82
2023/05/18 01:21:32;;;;;;;9.48;5.30;;;;;;;3.69;77.05;102170.31;694108;28;1057;-82
2023/05/18 01:22:07;;;;;;;7.88;5.10;;;;;;;3.80;77.19;102189.22;691434;28;891;-82
2023/05/18 01:22:40;;;;;;;10.13;5.10;;;;;;;3.78;77.05;102185.63;690939;28;1154;-82
2023/05/18 01:23:19;;;;;;;11.23;5.45;;;;;;;3.70;77.41;102174.69;691229;28;819;-82
2023/05/18 01:24:02;;;;;;;9.63;5.30;;;;;;;3.72;77.43;102187.72;690737;28;998;-82
2023/05/18 01:24:34;;;;;;;10.27;5.50;;;;;;;3.62;77.05;102169.72;693685;28;1148;-82
2023/05/18 01:25:03;;;;;;;10.52;5.80;;;;;;;3.72;77.50;102192.88;693943;28;910;-82
2023/05/18 01:25:30;;;;;;;11.43;5.68;;;;;;;3.71;77.52;102183.34;693765;28;1262;-82
2023/05/18 01:25:54;;;;;;;11.65;5.40;;;;;;;3.70;77.74;102190.19;693995;28;831;-82
2023/05/18 01:26:31;;;;;;;9.65;5.10;;;;;;;3.64;77.56;102181.97;691073;28;1147;-82
2023/05/18 01:26:56;;;;;;;11.25;5.20;;;;;;;3.67;77.72;102189.03;696579;28;839;-82
2023/05/18 01:27:23;;;;;;;10.70;5.20;;;;;;;3.55;77.38;102174.38;691010;28;1231;-82
2023/05/18 01:27:46;;;;;;;11.13;5.70;;;;;;;3.55;77.61;102176.97;693709;28;1872;-82
2023/05/18 01:28:12;;;;;;;10.60;5.90;;;;;;;3.52;77.45;102163.81;691157;28;1006;-82
2023/05/18 01:28:33;;;;;;;9.48;5.55;;;;;;;3.56;77.54;102170.13;693533;28;2112;-82
2023/05/18 01:28:55;;;;;;;11.77;5.50;;;;;;;3.49;77.60;102162.69;691202;28;1311;-81
2023/05/18 01:29:18;;;;;;;10.30;5.30;;;;;;;3.60;77.81;102176.44;690932;28;1206;-82
2023/05/18 01:29:41;;;;;;;9.63;5.10;;;;;;;3.51;77.70;102167.19;693695;28;992;-82
2023/05/18 01:30:03;;;;;;;8.13;4.70;;;;;;;3.61;78.17;102184.28;691098;28;1397;-82
2023/05/18 01:30:25;;;;;;;9.00;4.90;;;;;;;3.58;77.73;102176.31;688187;28;1157;-82
2023/05/18 01:30:45;;;;;;;9.77;5.15;;;;;;;3.50;77.79;102165.38;688371;28;1131;-83
2023/05/18 01:31:06;;;;;;;8.60;5.20;;;;;;;3.53;77.53;102169.88;688521;28;1104;-82
2023/05/18 01:31:28;;;;;;;8.60;5.40;;;;;;;3.55;77.97;102176.97;688207;28;1194;-82
2023/05/18 01:31:48;;;;;;;8.32;5.70;;;;;;;3.54;77.60;102172.59;691229;28;831;-82
2023/05/18 01:32:09;;;;;;;9.67;5.83;;;;;;;3.53;77.74;102175.03;691042;28;1048;-82
2023/05/18 01:32:38;;;;;;;9.65;5.53;;;;;;;3.51;77.63;102172.34;693459;28;1194;-82
2023/05/18 01:32:58;;;;;;;10.35;5.40;;;;;;;3.47;77.66;102169.38;693831;28;1857;-82
2023/05/18 01:33:23;;;;;;;10.27;5.25;;;;;;;3.44;78.21;102164.91;688270;28;1268;-82
2023/05/18 01:33:45;;;;;;;8.50;5.28;;;;;;;3.46;78.03;102170.16;696484;28;1028;-82
2023/05/18 01:34:05;;;;;;;7.97;5.40;;;;;;;3.44;77.59;102169.16;693787;28;1846;-82
2023/05/18 01:34:26;;;;;;;6.72;5.35;;;;;;;3.45;77.93;102176.09;688216;28;1268;-81
2023/05/18 01:34:48;;;;;;;8.85;5.90;;;;;;;3.52;78.01;102187.06;688489;28;1177;-81
2023/05/18 01:35:08;;;;;;;10.05;6.20;;;;;;;3.48;78.06;102184.13;691105;28;1154;-82
2023/05/18 01:35:29;;;;;;;10.75;6.15;;;;;;;3.38;77.85;102167.88;690905;28;1926;-82
2023/05/18 01:35:52;;;;;;;11.38;5.80;;;;;;;3.43;77.81;102181.13;691217;28;1282;-82
2023/05/18 01:36:13;;;;;;;10.57;5.50;;;;;;;3.43;78.18;102183.72;690979;28;1497;-82
2023/05/18 01:36:34;;;;;;;10.18;5.57;;;;;;;3.41;78.02;102181.03;688215;28;1033;-82
2023/05/18 01:36:55;;;;;;;8.57;5.57;;;;;;;3.38;78.21;102180.78;690949;28;856;-82
2023/05/18 01:37:17;;;;;;;10.35;5.80;;;;;;;3.37;77.99;102183.25;691184;28;1200;-82
2023/05/18 01:37:37;;;;;;;11.40;5.70;;;;;;;3.31;78.42;102167.28;690792;28;1024;-82
2023/05/18 01:37:58;;;;;;;12.75;6.03;;;;;;;3.47;78.15;102200.34;691250;28;819;-82
2023/05/18 01:38:21;;;;;;;9.50;5.60;;;;;;;3.45;78.27;102202.84;693655;28;1195;-82
2023/05/18 01:38:42;;;;;;;7.85;5.68;;;;;;;3.37;78.56;102183.25;690888;28;1091;-82
2023/05/18 01:39:02;;;;;;;8.18;5.80;;;;;;;3.32;78.62;102176.81;691037;28;1066;-82
2023/05/18 01:39:23;;;;;;;8.45;5.80;;;;;;;3.40;78.45;102194.72;688300;28;1436;-82
2023/05/18 01:39:44;;;;;;;7.50;5.40;;;;;;;3.28;78.38;102171.41;690933;28;1037;-81
2023/05/18 01:40:06;;;;;;;5.70;5.10;;;;;;;3.31;78.48;102177.59;691104;28;1455;-82
2023/05/18 01:40:33;;;;;;;7.05;5.20;;;;;;;3.42;78.47;102205.16;690867;28;1118;-82
2023/05/18 01:41:00;;;;;;;8.73;5.60;;;;;;;3.39;78.76;102197.16;688433;28;855;-82
2023/05/18 01:41:22;;;;;;;8.45;5.80;;;;;;;3.28;78.58;102179.16;688247;28;1099;-82
2023/05/18 01:41:55;;;;;;;8.43;5.57;;;;;;;3.26;78.46;102180.69;688289;28;1268;-82
2023/05/18 01:42:24;;;;;;;9.40;5.47;;;;;;;3.33;78.59;102196.66;688217;28;1215;-81
2023/05/18 01:42:50;;;;;;;9.93;5.57;;;;;;;3.25;78.68;102184.06;685559;28;1131;-82
2023/05/18 01:43:16;;;;;;;9.93;5.60;;;;;;;3.20;78.67;102172.47;691102;28;1123;-82
2023/05/18 01:43:45;;;;;;;9.68;5.70;;;;;;;3.20;79.02;102169.91;690823;28;1042;-83
2023/05/18 01:44:16;;;;;;;10.68;5.93;;;;;;;3.36;79.12;102202.97;693889;28;1171;-82
2023/05/18 01:44:44;;;;;;;9.95;5.80;;;;;;;3.18;79.15;102167.97;693551;28;1047;-82
2023/05/18 01:45:11;;;;;;;8.35;5.40;;;;;;;3.34;79.24;102203.63;688366;28;1074;-82
2023/05/18 01:45:32;;;;;;;8.43;5.60;;;;;;;3.31;79.22;102203.41;690730;28;1354;-82
2023/05/18 01:45:56;;;;;;;8.43;5.72;;;;;;;3.18;79.21;102173.13;693942;28;838;-82
2023/05/18 01:46:30;;;;;;;7.38;5.45;;;;;;;3.26;79.50;102188.44;690925;28;1141;-82
2023/05/18 01:46:58;;;;;;;8.82;5.40;;;;;;;3.34;79.45;102201.06;693631;28;923;-82
2023/05/18 01:47:25;;;;;;;9.07;5.40;;;;;;;3.28;79.06;102189.47;693801;28;1094;-82
2023/05/18 01:47:47;;;;;;;6.85;5.22;;;;;;;3.19;79.48;102175.81;691026;28;1056;-82
2023/05/18 01:48:12;;;;;;;6.93;5.30;;;;;;;3.19;79.06;102183.53;688303;28;1357;-83
2023/05/18 01:48:37;;;;;;;7.93;5.72;;;;;;;3.33;79.73;102207.00;690841;28;1149;-82
2023/05/18 01:49:04;;;;;;;8.30;5.38;;;;;;;3.15;79.34;102176.34;691112;28;905;-82
2023/05/18 01:49:33;;;;;;;8.32;5.32;;;;;;;3.32;79.54;102200.94;693650;28;1019;-82
2023/05/18 01:50:09;;;;;;;9.50;6.20;;;;;;;3.23;79.80;102182.13;694326;28;961;-81
2023/05/18 01:50:37;;;;;;;14.45;6.50;;;;;;;3.26;79.80;102193.59;690694;28;1057;-81
2023/05/18 01:50:58;;;;;;;12.00;5.90;;;;;;;3.18;79.87;102176.59;691175;28;779;-82
2023/05/18 01:51:21;;;;;;;10.00;5.75;;;;;;;3.24;79.88;102176.22;690904;28;1366;-82
2023/05/18 01:51:45;;;;;;;7.28;5.50;;;;;;;3.22;79.91;102178.66;693647;28;1073;-82
2023/05/18 01:52:10;;;;;;;7.93;5.60;;;;;;;3.29;80.04;102195.53;699283;28;1800;-82
2023/05/18 01:52:41;;;;;;;9.70;5.90;;;;;;;3.26;79.60;102191.00;693485;28;1095;-82
2023/05/18 01:53:26;;;;;;;9.45;6.20;;;;;;;3.32;80.25;102206.09;691186;28;784;-82
2023/05/18 01:53:58;;;;;;;10.52;5.93;;;;;;;3.21;79.61;102182.00;688304;28;1065;-82